Time;durP1;ratioP1;P1;durP2;ratioP2;P2;SDS_P1;SDS_P2;PMS_P1;PMS_P2;Temp;Humidity;BMP_temperature;BMP_pressure;BME280_temperature;BME280_humidity;BME280_pressure;Samples;Min_cycle;Max_cycle;Signal;HPM_P1;HPM_P2
2022/08/28 00:03:08;;;;;;;10.63;5.53;;;23.30;90.70;;;22.35;70.66;99693.13;10458297;27;97121;-85
2022/08/28 00:08:13;;;;;;;16.33;5.30;;;23.50;91.90;;;22.54;72.09;99683.53;10433859;27;97722;-86
2022/08/28 00:13:20;;;;;;;19.80;5.90;;;23.60;92.70;;;22.60;72.62;99676.25;10463222;27;96518;-85
2022/08/28 00:18:25;;;;;;;13.77;5.53;;;23.70;93.20;;;22.56;72.87;99669.75;10443116;27;97881;-85
2022/08/28 00:23:28;;;;;;;12.13;5.32;;;23.70;93.90;;;22.52;73.70;99661.31;10433351;27;96759;-84
2022/08/28 00:28:44;;;;;;;13.35;5.45;;;23.60;94.40;;;22.47;73.83;99665.88;10423882;27;96675;-85
2022/08/28 00:33:49;;;;;;;10.45;5.45;;;23.50;95.00;;;22.44;73.58;99659.91;10436593;27;96596;-84
2022/08/28 00:38:52;;;;;;;9.70;4.80;;;23.50;94.90;;;22.45;72.53;99655.31;10422395;27;96921;-85
2022/08/28 00:44:26;;;;;;;7.93;4.35;;;23.50;94.50;;;22.41;71.16;99638.75;10406857;27;97410;-85
2022/08/28 00:49:34;;;;;;;9.90;4.00;;;23.50;93.60;;;22.39;70.03;99656.34;10441375;27;96646;-85
2022/08/28 00:55:04;;;;;;;7.13;3.42;;;23.50;93.30;;;22.34;69.23;99646.28;10413535;27;97034;-85
2022/08/28 01:00:15;;;;;;;6.07;3.63;;;23.40;92.80;;;22.30;68.91;99657.88;10406491;27;96933;-85
2022/08/28 01:05:19;;;;;;;6.63;3.50;;;23.40;92.80;;;22.26;68.79;99673.84;10434847;27;96666;-85
2022/08/28 01:10:25;;;;;;;6.97;3.05;;;23.40;92.70;;;22.20;68.36;99668.66;10429938;27;96657;-85
2022/08/28 01:15:32;;;;;;;7.30;3.40;;;23.30;92.50;;;22.12;68.42;99680.72;10442882;27;96846;-86
2022/08/28 01:20:41;;;;;;;7.88;3.20;;;23.30;92.30;;;22.05;68.56;99677.38;10448352;27;96595;-86
2022/08/28 01:25:44;;;;;;;6.20;3.00;;;23.20;92.40;;;22.00;68.49;99690.84;10448148;27;96544;-86
2022/08/28 01:30:48;;;;;;;4.15;2.90;;;23.10;92.30;;;21.92;68.70;99705.66;10429166;27;96722;-86
2022/08/28 01:35:52;;;;;;;5.40;3.03;;;23.10;92.50;;;21.85;68.34;99708.56;10433345;27;96560;-87
2022/08/28 01:40:56;;;;;;;6.35;3.13;;;23.00;92.30;;;21.82;68.77;99694.72;10449285;27;96776;-86
2022/08/28 01:46:04;;;;;;;9.52;3.55;;;23.00;92.40;;;21.78;68.50;99709.84;10418743;27;96837;-87
2022/08/28 01:51:09;;;;;;;5.80;3.35;;;22.90;92.40;;;21.75;68.64;99699.53;10460899;27;96754;-87
2022/08/28 01:56:14;;;;;;;10.82;3.50;;;22.90;92.50;;;21.68;68.77;99701.59;10440386;27;96660;-85
2022/08/28 02:01:20;;;;;;;7.07;3.00;;;22.80;92.60;;;21.64;68.85;99712.91;10432141;27;96559;-87
2022/08/28 02:06:24;;;;;;;5.10;3.45;;;22.80;92.70;;;21.60;68.94;99709.09;10437025;27;98339;-86
2022/08/28 02:11:31;;;;;;;10.15;3.72;;;22.80;92.80;;;21.56;69.19;99690.91;10445562;27;96547;-87
2022/08/28 02:16:34;;;;;;;5.57;3.35;;;22.70;93.00;;;21.48;71.18;99684.06;10435283;27;97279;-87
2022/08/28 02:21:37;;;;;;;5.18;3.00;;;22.60;93.80;;;21.34;71.67;99682.81;10437347;27;96610;-87
2022/08/28 02:26:40;;;;;;;6.65;3.00;;;22.50;94.40;;;21.24;72.50;99667.25;10456976;27;96483;-87
2022/08/28 02:31:43;;;;;;;4.20;3.03;;;22.50;94.60;;;21.17;73.69;99652.28;10431661;27;96686;-86
2022/08/28 02:36:46;;;;;;;6.75;3.50;;;22.50;94.90;;;21.09;73.41;99670.56;10408984;27;97465;-87
2022/08/28 02:41:49;;;;;;;4.30;2.80;;;22.40;94.90;;;21.05;74.09;99661.34;10420395;27;96534;-86
2022/08/28 02:46:52;;;;;;;5.65;3.47;;;22.40;94.90;;;21.02;74.55;99664.53;10436183;27;96495;-86
2022/08/28 02:51:57;;;;;;;5.25;3.15;;;22.40;95.50;;;20.95;74.93;99665.78;10431759;27;96526;-86
2022/08/28 02:57:00;;;;;;;5.10;3.20;;;22.30;95.80;;;20.91;75.49;99660.03;10424691;27;96541;-86
2022/08/28 03:02:05;;;;;;;4.78;2.80;;;22.30;96.00;;;20.88;75.38;99674.06;10430346;27;96527;-86
2022/08/28 03:07:12;;;;;;;4.88;2.75;;;22.20;96.10;;;20.83;75.21;99711.78;10424075;27;97792;-87
2022/08/28 03:12:15;;;;;;;5.00;3.30;;;22.20;96.20;;;20.77;75.20;99710.06;10433374;27;98049;-86
2022/08/28 03:17:20;;;;;;;5.05;3.42;;;22.10;96.20;;;20.75;74.86;99702.22;10432343;27;96762;-87
2022/08/28 03:27:45;;;;;;;5.70;3.20;;;22.00;96.40;;;20.80;75.03;99698.75;10434475;27;96599;-87
2022/08/28 03:32:49;;;;;;;5.40;3.53;;;22.10;96.60;;;20.73;76.25;99707.03;10444119;27;96661;-86
2022/08/28 03:37:52;;;;;;;6.72;3.70;;;22.00;97.00;;;20.60;77.09;99710.06;10437410;27;96561;-85
2022/08/28 03:42:55;;;;;;;4.45;3.60;;;21.90;97.40;;;20.47;77.59;99715.81;10458624;27;97746;-86
2022/08/28 03:47:58;;;;;;;5.18;3.80;;;21.80;98.00;;;20.39;78.85;99724.25;10452316;27;97223;-85
2022/08/28 03:53:01;;;;;;;8.43;4.20;;;21.70;98.60;;;20.30;79.95;99715.75;10440030;27;96546;-85
2022/08/28 03:58:04;;;;;;;7.93;4.97;;;21.60;99.30;;;20.26;80.31;99710.00;10442060;27;96765;-85
2022/08/28 04:03:08;;;;;;;9.00;3.60;;;21.60;99.70;;;20.27;80.77;99721.59;10447828;27;96678;-86
2022/08/28 04:08:14;;;;;;;6.82;3.42;;;21.60;99.90;;;20.29;80.93;99722.19;10434208;27;97546;-86
2022/08/28 04:13:19;;;;;;;5.70;3.60;;;21.60;99.90;;;20.34;81.11;99716.09;10419974;27;96799;-85
2022/08/28 04:18:22;;;;;;;6.85;3.85;;;21.60;99.90;;;20.32;81.30;99713.59;10421938;27;97430;-85
2022/08/28 04:23:27;;;;;;;6.63;3.60;;;21.70;99.90;;;20.30;81.68;99719.25;10441737;27;97026;-85
2022/08/28 04:28:31;;;;;;;7.05;4.50;;;21.70;99.90;;;20.28;81.63;99712.47;10429069;27;96657;-85
2022/08/28 04:33:35;;;;;;;6.93;4.28;;;21.60;99.90;;;20.21;82.04;99711.78;10426480;27;96731;-85
2022/08/28 04:38:40;;;;;;;4.93;4.07;;;21.60;99.90;;;20.20;82.84;99715.56;10442527;27;96690;-86
2022/08/28 04:43:46;;;;;;;5.18;4.07;;;21.60;99.90;;;20.19;82.98;99712.03;10414523;28;97528;-86
2022/08/28 04:48:49;;;;;;;7.20;4.65;;;21.50;99.90;;;20.15;83.13;99715.47;10434792;27;98377;-86
2022/08/28 04:53:52;;;;;;;9.52;5.07;;;21.50;99.90;;;20.19;83.79;99736.31;10455217;27;96626;-86
2022/08/28 04:58:55;;;;;;;6.68;4.00;;;21.50;99.90;;;20.21;83.72;99733.38;10419028;28;96519;-86
2022/08/28 05:04:02;;;;;;;6.00;4.20;;;21.50;99.90;;;20.26;83.97;99746.94;10422842;27;96781;-86
2022/08/28 05:09:05;;;;;;;5.10;4.07;;;21.60;99.90;;;20.40;84.04;99736.69;10420026;27;96653;-86
2022/08/28 05:14:09;;;;;;;8.00;4.35;;;21.70;99.90;;;20.56;84.17;99744.81;10427997;27;96691;-86
2022/08/28 05:19:19;;;;;;;6.05;3.40;;;21.90;99.90;;;20.73;83.71;99749.41;10431772;27;96804;-85
2022/08/28 05:24:22;;;;;;;6.35;3.35;;;22.10;99.90;;;20.87;83.03;99750.75;10454463;27;96581;-86
2022/08/28 05:29:25;;;;;;;7.45;3.90;;;22.20;99.90;;;21.06;82.73;99754.00;10408000;27;96566;-86
2022/08/28 05:34:28;;;;;;;5.55;2.83;;;22.40;99.90;;;21.27;82.12;99761.31;10428416;27;96847;-86
2022/08/28 05:39:31;;;;;;;4.50;3.00;;;22.60;99.90;;;21.41;81.08;99753.72;10461115;27;96639;-86
2022/08/28 05:44:34;;;;;;;5.53;2.97;;;22.70;99.90;;;21.55;80.48;99748.78;10430110;27;96771;-86
2022/08/28 05:49:37;;;;;;;5.32;2.88;;;22.90;99.90;;;21.69;79.48;99738.38;10449767;27;97033;-86
2022/08/28 05:54:41;;;;;;;3.65;3.08;;;23.00;99.90;;;21.84;78.67;99734.00;10448269;27;96686;-86
2022/08/28 05:59:44;;;;;;;4.78;3.20;;;23.10;99.90;;;22.00;77.74;99720.63;10425444;27;98604;-86
2022/08/28 06:04:48;;;;;;;6.22;3.20;;;23.30;99.90;;;22.18;77.32;99715.69;10459569;27;96626;-85
2022/08/28 06:09:51;;;;;;;7.05;3.17;;;23.50;99.90;;;22.37;75.04;99718.03;10437897;27;96676;-86
2022/08/28 06:14:54;;;;;;;5.88;3.17;;;23.70;99.90;;;22.57;74.37;99731.78;10437631;27;97032;-86
2022/08/28 06:19:58;;;;;;;4.40;2.58;;;23.90;99.90;;;22.75;72.90;99729.75;10420019;27;96657;-85
2022/08/28 06:25:01;;;;;;;3.97;2.80;;;24.10;99.20;;;22.90;71.99;99717.13;10420203;27;97111;-85
2022/08/28 06:30:10;;;;;;;4.18;2.72;;;24.30;98.60;;;23.04;71.06;99722.94;10425120;27;98445;-85
2022/08/28 06:35:14;;;;;;;6.75;2.88;;;24.40;98.10;;;23.07;69.04;99722.41;10444060;27;96919;-86
2022/08/28 06:40:17;;;;;;;6.68;2.97;;;24.50;97.10;;;23.07;67.80;99729.72;10446822;27;97975;-86
2022/08/28 06:45:20;;;;;;;5.00;2.60;;;24.50;96.10;;;23.09;67.60;99730.25;10423090;27;97196;-86
2022/08/28 06:50:23;;;;;;;4.13;2.33;;;24.50;95.90;;;23.10;67.05;99737.34;10417553;27;98344;-86
2022/08/28 06:55:26;;;;;;;6.38;3.35;;;24.50;95.60;;;23.19;68.06;99735.75;10428151;27;97004;-86
2022/08/28 07:00:32;;;;;;;5.68;2.65;;;24.60;95.60;;;23.35;68.49;99744.81;10450092;27;97528;-88
2022/08/28 07:05:35;;;;;;;3.10;2.38;;;24.70;95.70;;;23.47;67.89;99753.53;10444404;27;97290;-86
2022/08/28 07:10:37;;;;;;;4.22;2.47;;;24.80;95.50;;;23.50;67.21;99747.56;10415967;27;98094;-87
2022/08/28 07:15:40;;;;;;;4.38;2.63;;;24.90;95.10;;;23.50;66.66;99758.44;10434996;27;96621;-87
2022/08/28 07:20:44;;;;;;;4.55;2.97;;;24.90;94.80;;;23.47;66.74;99764.38;10437530;27;98101;-87
2022/08/28 07:25:47;;;;;;;5.65;2.95;;;24.90;94.80;;;23.42;66.43;99759.75;10430226;27;98301;-87
2022/08/28 07:31:21;;;;;;;9.13;3.05;;;24.90;94.60;;;23.48;67.03;99771.44;10434581;27;98063;-87
2022/08/28 07:36:26;;;;;;;3.38;2.53;;;24.90;94.70;;;23.57;66.85;99769.88;10417249;27;98417;-87
2022/08/28 07:41:37;;;;;;;7.20;2.85;;;25.00;94.40;;;23.71;66.21;99764.81;10440322;27;97684;-87
2022/08/28 07:46:41;;;;;;;3.57;2.50;;;25.10;94.10;;;24.01;65.46;99764.09;10426696;27;97682;-87
2022/08/28 07:51:44;;;;;;;6.00;2.90;;;25.20;93.80;;;24.69;64.65;99764.78;10421678;28;96479;-87
2022/08/28 07:56:48;;;;;;;3.38;2.65;;;25.50;93.90;;;25.22;62.44;99759.06;10432089;27;96751;-87
2022/08/28 08:01:52;;;;;;;6.22;2.38;;;25.90;93.40;;;25.41;60.68;99760.09;10425265;27;97993;-87
2022/08/28 08:06:55;;;;;;;4.88;2.67;;;26.20;92.70;;;25.48;60.15;99762.53;10426265;27;96776;-87
2022/08/28 08:12:00;;;;;;;6.40;2.60;;;26.50;91.70;;;25.61;59.97;99759.25;10416207;27;98130;-85
2022/08/28 08:17:04;;;;;;;3.38;2.50;;;26.80;91.10;;;25.78;58.73;99765.16;10447206;27;96663;-85
2022/08/28 08:22:09;;;;;;;5.35;2.63;;;27.00;90.20;;;25.93;57.95;99767.03;10423835;27;96707;-85
2022/08/28 08:27:12;;;;;;;4.55;3.20;;;27.20;89.30;;;26.09;57.00;99765.88;10431084;27;97144;-85
2022/08/28 08:32:15;;;;;;;5.63;2.75;;;27.40;88.10;;;26.18;55.82;99776.97;10433205;27;98028;-85
2022/08/28 08:37:18;;;;;;;6.32;2.40;;;27.60;86.40;;;26.17;55.70;99777.25;10419423;27;98396;-84
2022/08/28 08:42:29;;;;;;;7.07;2.60;;;27.60;85.50;;;26.10;56.36;99783.00;10417220;27;97394;-84
2022/08/28 08:47:59;;;;;;;4.82;2.38;;;27.50;85.70;;;26.10;57.42;99792.00;10463350;27;96591;-85
2022/08/28 08:53:17;;;;;;;;;;;27.40;86.50;;;26.11;57.38;99790.09;10427797;27;96548;-85
2022/08/28 08:58:40;;;;;;;6.65;2.78;;;27.40;85.70;;;26.07;57.90;99781.66;10422076;27;96473;-85
2022/08/28 09:04:21;;;;;;;5.03;2.58;;;27.30;86.70;;;26.21;56.30;99784.59;10436103;27;97308;-85
2022/08/28 09:09:36;;;;;;;4.05;2.50;;;27.50;85.30;;;26.39;56.07;99789.38;10420888;27;96717;-85
2022/08/28 09:14:57;;;;;;;3.80;2.47;;;27.60;84.90;;;26.54;54.33;99782.22;10448407;27;97243;-84
2022/08/28 09:20:00;;;;;;;9.85;7.03;;;27.70;82.60;;;26.62;53.49;99778.88;10429189;27;97877;-84
2022/08/28 09:25:04;;;;;;;5.00;3.50;;;27.90;81.40;;;26.78;53.04;99777.66;10438083;27;96714;-83
2022/08/28 09:30:10;;;;;;;3.70;2.67;;;28.10;80.90;;;26.93;51.66;99774.00;10441300;27;97089;-85
2022/08/28 09:35:28;;;;;;;6.18;2.95;;;28.30;79.00;;;27.19;52.05;99777.34;10455115;27;96974;-84
2022/08/28 09:46:29;;;;;;;5.25;2.55;;;28.70;77.20;;;27.53;48.28;99777.25;10445364;27;98629;-84
2022/08/28 09:51:37;;;;;;;3.92;2.65;;;28.90;74.80;;;27.68;47.92;99768.88;10447899;27;97275;-84
2022/08/28 09:56:43;;;;;;;4.47;2.67;;;29.10;73.40;;;27.84;47.17;99769.53;10447196;27;96636;-84
2022/08/28 10:02:10;;;;;;;4.55;2.20;;;29.30;71.70;;;28.11;46.67;99773.56;10425150;27;97582;-85
2022/08/28 10:07:31;;;;;;;3.90;2.42;;;29.50;70.80;;;28.29;45.94;99772.75;10445419;27;97048;-85
2022/08/28 10:13:08;;;;;;;3.25;2.13;;;29.70;69.40;;;28.56;45.04;99761.19;10461170;27;98068;-85
2022/08/28 10:18:29;;;;;;;3.85;2.60;;;29.90;66.50;;;28.69;44.76;99759.59;10450464;27;97351;-85
2022/08/28 10:24:16;;;;;;;4.78;2.80;;;30.00;68.50;;;28.83;45.09;99744.03;10452755;27;96580;-85
2022/08/28 10:29:46;;;;;;;6.65;3.25;;;30.20;68.10;;;29.02;44.81;99750.28;10434103;27;97207;-85
2022/08/28 10:35:12;;;;;;;4.13;2.33;;;30.40;66.90;;;29.30;44.49;99753.88;10433254;27;97010;-85
2022/08/28 10:40:40;;;;;;;3.20;2.25;;;30.70;66.60;;;29.62;42.94;99745.91;10441563;27;96779;-85
2022/08/28 10:45:44;;;;;;;4.90;2.30;;;31.00;65.60;;;29.85;42.77;99750.34;10439045;27;96680;-85
2022/08/28 10:50:54;;;;;;;3.75;2.35;;;31.30;65.10;;;30.10;40.60;99747.06;10445349;27;96664;-85
2022/08/28 10:56:06;;;;;;;6.82;2.50;;;31.40;62.30;;;30.18;39.70;99736.50;10434610;27;98065;-84
2022/08/28 11:01:27;;;;;;;3.85;2.40;;;31.50;60.20;;;30.30;39.63;99728.56;10445746;27;96708;-84
2022/08/28 11:06:46;;;;;;;3.90;2.70;;;31.60;60.30;;;30.35;40.24;99734.72;10414191;27;98454;-85
2022/08/28 11:12:00;;;;;;;5.88;3.13;;;31.70;60.00;;;30.55;40.89;99733.41;10443908;27;98160;-85
2022/08/28 11:17:36;;;;;;;4.60;2.60;;;31.80;61.30;;;30.58;39.68;99731.97;10411331;27;96559;-85
2022/08/28 11:22:51;;;;;;;3.17;2.28;;;31.80;60.00;;;30.24;39.20;99740.75;10422531;27;96493;-85
2022/08/28 11:28:37;;;;;;;4.13;2.55;;;31.50;59.10;;;30.06;40.01;99735.09;10452985;27;97305;-85
2022/08/28 11:33:51;;;;;;;4.15;2.10;;;31.30;59.90;;;30.22;40.13;99732.03;10411876;27;97850;-85
2022/08/28 11:38:54;;;;;;;3.15;2.20;;;31.40;59.90;;;30.50;39.95;99733.53;10426401;27;97446;-85
2022/08/28 11:44:09;;;;;;;2.90;2.47;;;31.60;59.60;;;30.65;39.31;99730.44;10421843;27;97495;-83
2022/08/28 11:49:28;;;;;;;3.58;2.33;;;31.80;59.10;;;30.82;39.23;99737.16;10433514;27;97360;-82
2022/08/28 11:55:14;;;;;;;5.00;2.53;;;31.90;58.90;;;30.90;38.64;99729.00;10442883;27;98261;-83
2022/08/28 12:00:50;;;;;;;4.55;2.20;;;32.10;58.20;;;30.86;38.12;99722.50;10437959;27;97234;-83
2022/08/28 12:05:56;;;;;;;7.88;2.20;;;32.20;57.60;;;30.58;39.22;99729.22;10436198;27;96577;-83
2022/08/28 12:11:00;;;;;;;4.07;2.25;;;31.90;58.50;;;30.23;39.91;99730.91;10420034;27;98381;-84
2022/08/28 12:16:06;;;;;;;4.57;2.20;;;31.50;59.40;;;29.95;40.20;99724.66;10410800;27;97455;-83
2022/08/28 12:21:24;;;;;;;3.40;2.03;;;31.10;59.20;;;29.86;40.50;99722.63;10454291;27;96706;-84
2022/08/28 12:26:46;;;;;;;3.43;2.20;;;31.10;59.00;;;29.82;40.75;99720.84;10440562;27;98168;-83
2022/08/28 12:32:12;;;;;;;3.20;1.88;;;31.10;59.80;;;29.91;40.54;99723.66;10438890;27;96807;-83
2022/08/28 12:37:30;;;;;;;4.45;2.03;;;31.10;59.60;;;30.16;40.44;99717.63;10436331;27;96570;-84
2022/08/28 12:43:03;;;;;;;5.05;2.28;;;31.40;60.00;;;30.34;39.63;99713.09;10425343;27;96902;-83
2022/08/28 12:48:22;;;;;;;2.58;2.00;;;31.60;58.40;;;30.42;40.40;99717.03;10449462;27;96882;-84
2022/08/28 12:53:25;;;;;;;3.80;2.38;;;31.60;59.00;;;30.48;40.46;99710.31;10422284;27;97506;-87
2022/08/28 12:58:38;;;;;;;4.90;2.30;;;31.60;59.10;;;30.55;40.83;99706.00;10448010;27;98780;-84
2022/08/28 13:04:10;;;;;;;6.13;2.33;;;31.60;60.00;;;30.72;40.96;99707.28;10451125;27;97655;-84
2022/08/28 13:09:21;;;;;;;3.40;2.33;;;31.70;60.50;;;30.80;40.72;99696.34;10435139;27;96597;-83
2022/08/28 13:14:44;;;;;;;6.40;2.20;;;31.80;60.00;;;30.77;40.59;99690.66;10453689;27;97884;-85
2022/08/28 13:20:06;;;;;;;3.75;2.30;;;31.80;60.00;;;30.63;40.86;99691.53;10432570;27;96649;-84
2022/08/28 13:25:29;;;;;;;4.13;2.38;;;31.60;60.10;;;30.49;40.48;99693.53;10435078;27;97252;-85
2022/08/28 13:30:34;;;;;;;5.78;2.92;;;31.60;59.70;;;30.35;40.69;99690.88;10446671;27;96730;-84
2022/08/28 13:35:40;;;;;;;5.22;2.20;;;31.40;59.90;;;30.31;42.16;99680.84;10416451;27;96677;-85
2022/08/28 13:41:01;;;;;;;3.13;2.38;;;31.40;61.40;;;30.25;42.11;99685.63;10450249;27;96950;-85
2022/08/28 13:46:04;;;;;;;5.45;2.55;;;31.30;61.50;;;29.97;42.72;99676.66;10458128;27;97387;-85
2022/08/28 13:51:11;;;;;;;4.18;2.75;;;31.10;61.60;;;29.70;43.29;99676.75;10440076;27;97153;-84
2022/08/28 13:56:23;;;;;;;5.28;3.15;;;30.90;62.30;;;29.39;43.73;99671.91;10431822;27;96870;-85
2022/08/28 14:03:34;;;;;;;5.35;2.80;;;30.50;62.50;;;29.35;44.02;99664.59;10433560;27;97678;-86
2022/08/28 14:06:49;;;;;;;5.35;2.53;;;30.40;63.20;;;29.53;44.29;99663.69;10454114;27;96640;-85
2022/08/28 14:11:54;;;;;;;4.18;2.50;;;30.60;63.40;;;29.61;44.44;99662.16;10467413;27;97370;-88
2022/08/28 14:16:58;;;;;;;4.18;2.45;;;30.60;63.40;;;29.76;44.59;99656.34;10446536;27;97280;-84
2022/08/28 14:22:02;;;;;;;4.10;2.70;;;30.80;63.60;;;29.86;43.75;99656.91;10437344;27;97142;-86
2022/08/28 14:27:05;;;;;;;4.45;2.50;;;30.90;63.20;;;29.91;43.40;99655.19;10431357;27;98675;-85
2022/08/28 14:32:08;;;;;;;3.35;2.42;;;30.90;62.80;;;29.91;43.12;99658.72;10443093;27;96929;-86
2022/08/28 14:37:12;;;;;;;5.13;2.63;;;31.00;62.30;;;29.74;43.37;99664.03;10440344;27;98506;-85
2022/08/28 14:42:18;;;;;;;4.82;2.58;;;30.80;62.40;;;29.68;43.83;99670.75;10422082;27;96618;-85
2022/08/28 14:47:21;;;;;;;4.13;2.35;;;30.70;62.90;;;29.80;43.62;99663.63;10419466;27;97456;-85
2022/08/28 14:52:25;;;;;;;5.78;2.20;;;30.70;63.00;;;29.95;43.41;99661.66;10428614;27;96695;-85
2022/08/28 14:57:28;;;;;;;3.85;2.28;;;30.90;62.50;;;30.05;43.08;99670.47;10423655;28;96589;-85
2022/08/28 15:02:30;;;;;;;5.50;2.72;;;31.00;62.30;;;30.07;43.62;99665.47;10422746;27;96679;-85
2022/08/28 15:07:33;;;;;;;4.85;2.33;;;31.00;62.80;;;30.10;43.76;99664.03;10422760;27;96603;-85
2022/08/28 15:12:39;;;;;;;4.13;2.63;;;31.10;63.10;;;30.13;43.98;99668.13;10449226;27;96656;-85
2022/08/28 15:17:44;;;;;;;6.63;2.50;;;31.10;63.20;;;30.09;43.90;99665.97;10439253;27;96859;-85
2022/08/28 15:22:47;;;;;;;5.10;2.92;;;31.00;63.20;;;30.05;44.41;99666.91;10428046;27;96947;-86
2022/08/28 15:27:50;;;;;;;9.50;2.83;;;30.90;63.90;;;29.94;44.06;99673.75;10427652;27;97359;-86
2022/08/28 15:32:53;;;;;;;3.72;2.40;;;30.90;63.90;;;29.93;44.37;99667.47;10434452;27;96903;-86
2022/08/28 15:37:56;;;;;;;4.60;2.40;;;30.80;63.70;;;29.82;44.09;99672.34;10415331;27;97564;-87
2022/08/28 15:42:59;;;;;;;5.75;2.60;;;30.70;63.20;;;29.75;43.31;99682.94;10462787;27;96463;-85
2022/08/28 15:48:02;;;;;;;5.07;2.50;;;30.60;62.80;;;29.56;43.11;99687.69;10421584;27;96618;-84
2022/08/28 15:53:06;;;;;;;6.22;2.60;;;30.50;62.40;;;29.30;44.16;99687.41;10420215;27;98601;-85
2022/08/28 15:58:10;;;;;;;5.72;2.30;;;30.20;63.30;;;29.16;44.82;99686.59;10447731;27;96580;-85
2022/08/28 16:03:16;;;;;;;3.10;2.03;;;30.10;63.80;;;29.02;45.07;99679.16;10451604;27;97699;-84
2022/08/28 16:08:19;;;;;;;6.82;2.58;;;30.00;64.10;;;28.86;46.09;99679.75;10424594;27;98539;-85
2022/08/28 16:13:22;;;;;;;4.15;2.80;;;29.80;64.80;;;28.63;46.56;99667.84;10423580;27;96508;-85
2022/08/28 16:18:25;;;;;;;4.22;2.17;;;29.60;65.50;;;28.39;47.04;99668.78;10420454;27;96556;-85
2022/08/28 16:23:28;;;;;;;4.85;2.78;;;29.40;66.30;;;28.13;47.54;99662.06;10431195;27;96650;-85
2022/08/28 16:28:32;;;;;;;3.25;2.60;;;29.10;66.60;;;27.84;48.20;99673.97;10459866;27;96628;-86
2022/08/28 16:33:36;;;;;;;6.32;2.40;;;28.90;67.20;;;27.54;48.85;99663.47;10426473;27;96956;-84
2022/08/28 16:38:45;;;;;;;4.78;2.88;;;28.60;67.80;;;27.32;49.56;99666.72;10448022;27;96647;-85
2022/08/28 16:43:49;;;;;;;4.15;2.63;;;28.30;68.20;;;27.16;49.79;99685.16;10445099;27;96563;-85
2022/08/28 16:48:53;;;;;;;3.80;2.90;;;28.20;68.80;;;26.95;50.28;99699.00;10448179;27;98397;-86
2022/08/28 16:53:57;;;;;;;4.93;2.47;;;28.00;69.00;;;26.77;51.00;99702.44;10419357;27;97509;-86
2022/08/28 16:59:00;;;;;;;6.30;2.80;;;27.80;69.40;;;26.60;51.32;99704.78;10437772;27;97065;-86
2022/08/28 17:04:03;;;;;;;4.07;2.63;;;27.70;70.30;;;26.42;51.96;99726.16;10431693;27;98237;-86
2022/08/28 17:09:06;;;;;;;4.25;2.80;;;27.50;70.00;;;26.28;51.93;99733.34;10441459;27;96617;-86
2022/08/28 17:14:10;;;;;;;8.95;3.38;;;27.40;70.30;;;26.12;51.91;99737.25;10425853;27;98498;-86
2022/08/28 17:19:14;;;;;;;5.80;3.40;;;27.20;70.40;;;25.97;52.69;99740.03;10429204;27;96846;-87
2022/08/28 17:24:17;;;;;;;4.07;2.92;;;27.10;70.80;;;25.81;53.27;99742.84;10414035;27;96608;-87
2022/08/28 17:29:20;;;;;;;5.95;2.63;;;26.90;71.40;;;25.65;53.71;99741.25;10414383;27;98103;-87
2022/08/28 17:34:23;;;;;;;4.90;2.65;;;26.70;71.90;;;25.52;54.12;99744.56;10421221;27;97291;-87
2022/08/28 17:39:31;;;;;;;5.82;2.55;;;26.60;72.40;;;25.38;54.75;99748.97;10410168;27;97148;-87
2022/08/28 17:44:35;;;;;;;5.15;2.65;;;26.50;73.00;;;25.26;55.35;99763.69;10464263;27;96369;-87
2022/08/28 17:49:39;;;;;;;3.05;2.60;;;26.30;73.50;;;25.12;55.97;99761.81;10447257;27;96735;-87
2022/08/28 17:54:44;;;;;;;3.83;2.20;;;26.20;74.10;;;24.99;56.65;99776.72;10437647;27;96957;-87
2022/08/28 17:59:47;;;;;;;5.78;2.47;;;26.10;74.70;;;24.88;57.57;99788.69;10433264;27;96527;-87
2022/08/28 18:04:52;;;;;;;2.33;2.10;;;26.00;74.90;;;24.76;57.53;99788.97;10464160;27;98276;-87
2022/08/28 18:09:55;;;;;;;4.60;2.17;;;25.90;75.20;;;24.70;57.65;99795.47;10448770;27;96522;-87
2022/08/28 18:14:58;;;;;;;3.70;1.83;;;25.90;75.50;;;24.65;57.74;99795.47;10419223;28;96638;-87
2022/08/28 18:20:04;;;;;;;3.28;1.88;;;25.80;75.70;;;24.61;57.88;99794.41;10446831;27;97759;-85
2022/08/28 18:25:08;;;;;;;3.13;1.95;;;25.70;75.70;;;24.58;58.20;99803.88;10429631;27;96762;-85
2022/08/28 18:30:11;;;;;;;2.85;2.30;;;25.70;76.00;;;24.53;58.80;99806.63;10447716;27;96570;-85
2022/08/28 18:35:14;;;;;;;4.00;2.35;;;25.70;76.60;;;24.45;59.13;99805.22;10415631;27;96668;-85
2022/08/28 18:40:17;;;;;;;4.25;2.17;;;25.60;77.10;;;24.41;59.53;99800.59;10427292;27;96719;-87
2022/08/28 18:45:20;;;;;;;3.95;2.00;;;25.60;77.60;;;24.33;59.60;99801.09;10427053;27;98122;-87
2022/08/28 18:50:25;;;;;;;2.67;2.20;;;25.50;77.70;;;24.32;59.09;99797.56;10449638;27;96716;-87
2022/08/28 18:55:31;;;;;;;3.45;1.90;;;25.40;77.60;;;24.36;59.28;99806.03;10423219;27;97580;-87
2022/08/28 19:00:33;;;;;;;3.03;1.65;;;25.50;77.80;;;24.39;59.14;99817.16;10427249;27;98336;-87
2022/08/28 19:05:38;;;;;;;2.75;1.90;;;25.50;77.60;;;24.39;58.92;99825.31;10425212;27;98237;-87
2022/08/28 19:10:41;;;;;;;2.88;1.65;;;25.50;77.60;;;24.41;58.21;99820.44;10429143;27;96618;-87
2022/08/28 19:15:51;;;;;;;4.28;1.80;;;25.50;77.00;;;24.43;58.08;99818.28;10446385;27;98200;-86
2022/08/28 19:21:07;;;;;;;5.07;1.70;;;25.50;76.80;;;24.44;58.16;99827.22;10434876;27;96637;-87
2022/08/28 19:26:11;;;;;;;2.05;1.60;;;25.50;76.70;;;24.40;58.17;99829.66;10449948;27;96653;-87
2022/08/28 19:31:16;;;;;;;2.72;1.83;;;25.50;76.70;;;24.36;58.03;99831.31;10438506;27;98045;-88
2022/08/28 19:36:20;;;;;;;3.90;1.70;;;25.50;76.70;;;24.29;57.99;99836.94;10437266;27;98490;-87
2022/08/28 19:41:25;;;;;;;5.53;1.50;;;25.40;76.70;;;24.21;58.34;99847.50;10420595;27;96523;-87
2022/08/28 19:46:28;;;;;;;2.05;1.38;;;25.40;76.90;;;24.11;58.52;99850.16;10418608;27;97040;-88
2022/08/28 19:51:34;;;;;;;2.05;1.58;;;25.30;77.10;;;23.97;58.62;99852.56;10435630;27;97714;-87
2022/08/28 19:56:38;;;;;;;3.83;2.38;;;25.10;77.20;;;23.86;59.10;99859.00;10439345;27;98131;-88
2022/08/28 20:01:43;;;;;;;2.85;1.88;;;25.00;77.60;;;23.71;59.64;99873.31;10440945;27;97376;-87
2022/08/28 20:06:46;;;;;;;4.25;2.10;;;24.90;78.20;;;23.60;60.52;99872.41;10456385;27;96924;-87
2022/08/28 20:11:51;;;;;;;2.90;1.70;;;24.80;79.00;;;23.47;61.32;99873.69;10431372;27;96624;-87
2022/08/28 20:16:54;;;;;;;5.50;2.15;;;24.70;79.60;;;23.38;62.05;99885.25;10441942;27;96988;-87
2022/08/28 20:21:57;;;;;;;2.55;1.85;;;24.60;80.40;;;23.29;62.69;99875.97;10428520;27;96839;-86
2022/08/28 20:27:00;;;;;;;5.47;2.47;;;24.60;80.90;;;23.19;62.71;99877.50;10438723;27;97389;-87
2022/08/28 20:32:03;;;;;;;3.70;2.13;;;24.40;81.20;;;23.13;63.38;99875.84;10433660;27;98114;-88
2022/08/28 20:37:06;;;;;;;3.92;2.50;;;24.30;82.00;;;23.05;63.71;99880.94;10452819;27;98486;-88
2022/08/28 20:42:10;;;;;;;3.85;2.53;;;24.20;82.70;;;23.00;64.20;99883.59;10418012;27;96590;-87
2022/08/28 20:47:13;;;;;;;3.83;2.60;;;24.20;83.00;;;22.98;64.57;99891.16;10425058;27;97362;-87
2022/08/28 20:52:17;;;;;;;3.35;2.38;;;24.20;83.50;;;22.89;64.87;99886.19;10448628;27;96683;-88
2022/08/28 20:57:21;;;;;;;4.25;2.65;;;24.10;83.90;;;22.85;65.36;99884.22;10450402;27;96563;-88
2022/08/28 21:02:27;;;;;;;3.92;2.63;;;24.00;84.40;;;22.79;65.87;99887.94;10438393;27;98177;-87
2022/08/28 21:07:32;;;;;;;3.28;2.58;;;24.00;85.00;;;22.73;66.38;99875.44;10425663;27;96745;-87
2022/08/28 21:12:37;;;;;;;4.22;2.90;;;23.90;85.70;;;22.66;67.07;99887.28;10438709;27;97552;-88
2022/08/28 21:17:41;;;;;;;5.03;3.45;;;23.90;86.60;;;22.57;67.55;99880.69;10441375;27;96643;-87
2022/08/28 21:22:44;;;;;;;6.00;3.53;;;23.80;87.30;;;22.52;68.20;99896.88;10443810;27;96572;-87
2022/08/28 21:27:49;;;;;;;5.03;3.97;;;23.70;88.30;;;22.47;69.19;99896.00;10463093;27;96634;-87
2022/08/28 21:32:52;;;;;;;4.53;3.40;;;23.60;89.50;;;22.42;69.87;99894.06;10448014;27;96819;-88